createdAt,value
2018-12-18T00:00:49.606Z,92.23
2018-12-18T00:04:57.555Z,92.45
2018-12-18T00:09:09.506Z,92.93
2018-12-18T00:13:17.162Z,92.39
2018-12-18T00:17:22.932Z,92.69
2018-12-18T00:21:29.755Z,92.70
2018-12-18T00:25:35.913Z,92.61
2018-12-18T00:29:42.979Z,92.93
2018-12-18T00:33:49.135Z,93.24
2018-12-18T00:37:55.067Z,92.99
2018-12-18T00:42:03.514Z,93.45
2018-12-18T00:46:09.674Z,93.27
2018-12-18T00:50:17.242Z,92.92
2018-12-18T00:54:23.286Z,92.77
2018-12-18T00:58:29.080Z,93.27
2018-12-18T01:02:35.056Z,93.67
2018-12-18T01:06:42.871Z,93.56
2018-12-18T01:10:49.214Z,93.64
2018-12-18T01:14:55.288Z,93.83
2018-12-18T01:19:01.442Z,94.74
2018-12-18T01:23:07.952Z,94.53
2018-12-18T01:27:14.723Z,95.21
2018-12-18T01:31:20.636Z,95.64
2018-12-18T01:35:27.538Z,95.34
2018-12-18T01:39:34.471Z,95.98
2018-12-18T01:43:40.491Z,96.05
2018-12-18T01:47:47.227Z,96.45
2018-12-18T01:51:53.319Z,96.19
2018-12-18T01:55:59.005Z,96.39
2018-12-18T02:00:05.511Z,97.04
2018-12-18T02:04:13.550Z,96.69
2018-12-18T02:08:19.338Z,97.05
2018-12-18T02:12:25.197Z,96.53
2018-12-18T02:16:31.409Z,96.83
2018-12-18T02:20:37.688Z,96.88
2018-12-18T02:24:43.678Z,97.24
2018-12-18T02:28:49.821Z,96.64
2018-12-18T02:32:57.609Z,96.96
2018-12-18T02:37:03.720Z,96.80
2018-12-18T02:41:10.699Z,96.55
2018-12-18T02:45:16.902Z,96.31
2018-12-18T02:49:23.914Z,96.57
2018-12-18T02:53:30.029Z,96.54
2018-12-18T02:57:36.029Z,95.60
2018-12-18T03:01:42.619Z,95.97
2018-12-18T03:05:48.615Z,95.59
2018-12-18T03:09:54.830Z,95.83
2018-12-18T03:14:01.676Z,95.31
2018-12-18T03:18:07.614Z,95.13
2018-12-18T03:22:13.447Z,95.28
2018-12-18T03:26:19.424Z,95.00
2018-12-18T03:30:26.118Z,95.08
2018-12-18T03:34:31.959Z,95.95
2018-12-18T03:38:39.091Z,95.85
2018-12-18T03:42:45.566Z,95.99
2018-12-18T03:46:51.523Z,96.04
2018-12-18T03:50:57.547Z,96.29
2018-12-18T03:55:04.392Z,96.41
2018-12-18T03:59:10.230Z,96.99
2018-12-18T04:03:16.315Z,96.54
2018-12-18T04:07:22.344Z,96.59
2018-12-18T04:11:28.349Z,97.30
2018-12-18T04:15:34.604Z,97.06
2018-12-18T04:19:42.067Z,97.14
2018-12-18T04:23:48.262Z,97.55
2018-12-18T04:27:54.092Z,97.61
2018-12-18T04:31:59.996Z,97.89
2018-12-18T04:36:06.014Z,97.59
2018-12-18T04:40:12.185Z,97.39
2018-12-18T04:44:18.023Z,97.81
2018-12-18T04:48:24.045Z,97.89
2018-12-18T04:52:29.890Z,98.34
2018-12-18T04:56:35.908Z,98.21
2018-12-18T05:00:42.128Z,98.57
2018-12-18T05:04:50.412Z,98.17
2018-12-18T05:08:56.468Z,98.38
2018-12-18T05:13:03.107Z,98.86
2018-12-18T05:17:08.911Z,98.38
2018-12-18T05:21:14.821Z,98.87
2018-12-18T05:25:20.730Z,98.42
2018-12-18T05:29:27.391Z,98.36
2018-12-18T05:33:33.277Z,98.17
2018-12-18T05:37:39.462Z,98.41
2018-12-18T05:41:45.412Z,97.95
2018-12-18T05:45:52.092Z,97.99
2018-12-18T05:49:58.009Z,96.99
2018-12-18T05:54:03.894Z,97.47
2018-12-18T05:58:09.552Z,97.57
2018-12-18T06:02:15.648Z,97.10
2018-12-18T06:06:21.276Z,97.12
2018-12-18T06:10:27.249Z,96.94
2018-12-18T06:14:33.136Z,97.74
2018-12-18T06:18:39.116Z,97.79
2018-12-18T06:22:45.214Z,97.88
2018-12-18T06:26:51.062Z,97.89
2018-12-18T06:30:57.417Z,98.87
2018-12-18T06:35:10.037Z,98.85
2018-12-18T06:39:12.314Z,98.05
2018-12-18T06:43:19.454Z,98.45
2018-12-18T06:47:25.061Z,98.55
2018-12-18T06:51:31.125Z,97.75
2018-12-18T06:55:38.016Z,97.36
2018-12-18T06:59:44.200Z,97.69
2018-12-18T07:03:51.826Z,97.87
2018-12-18T07:07:57.834Z,98.08
2018-12-18T07:12:03.824Z,97.56
2018-12-18T07:16:09.660Z,97.88
2018-12-18T07:20:15.382Z,99.81
2018-12-18T07:24:21.184Z,98.17
2018-12-18T07:28:26.739Z,97.45
2018-12-18T07:32:32.534Z,96.46
2018-12-18T07:36:38.138Z,96.29
2018-12-18T07:40:43.739Z,96.53
2018-12-18T07:44:49.428Z,96.97
2018-12-18T07:48:55.113Z,96.89
2018-12-18T07:53:00.629Z,96.79
2018-12-18T07:57:06.241Z,97.25
2018-12-18T08:01:12.431Z,97.11
2018-12-18T08:05:18.033Z,96.88
2018-12-18T08:09:23.761Z,97.29
2018-12-18T08:13:30.204Z,97.07
2018-12-18T08:17:37.312Z,96.48
2018-12-18T08:21:43.701Z,96.86
2018-12-18T08:25:49.462Z,96.07
2018-12-18T08:29:56.018Z,95.71
2018-12-18T08:34:04.265Z,95.36
2018-12-18T08:38:10.376Z,95.40
2018-12-18T08:42:16.130Z,96.42
2018-12-18T08:46:22.291Z,95.69
2018-12-18T08:50:28.344Z,95.70
2018-12-18T08:54:34.165Z,96.18
2018-12-18T08:58:39.878Z,96.37
2018-12-18T09:02:45.527Z,96.03
2018-12-18T09:06:51.376Z,95.56
2018-12-18T09:10:57.452Z,96.17
2018-12-18T09:15:07.091Z,96.17
2018-12-18T09:19:12.781Z,94.85
2018-12-18T09:23:19.388Z,95.22
2018-12-18T09:27:26.358Z,94.82
2018-12-18T09:31:32.151Z,94.10
2018-12-18T09:35:38.002Z,94.08
2018-12-18T09:39:44.067Z,92.96
2018-12-18T09:43:56.271Z,93.18
2018-12-18T09:48:02.976Z,92.55
2018-12-18T09:52:08.640Z,90.33
2018-12-18T09:56:14.401Z,88.40
2018-12-18T10:00:20.488Z,87.57
2018-12-18T10:04:26.203Z,85.98
2018-12-18T10:08:32.182Z,85.31
2018-12-18T10:12:46.330Z,84.77
2018-12-18T10:16:52.595Z,84.50
2018-12-18T10:20:58.360Z,85.47
2018-12-18T10:25:04.392Z,84.65
2018-12-18T10:29:11.855Z,84.21
2018-12-18T10:33:17.504Z,83.74
2018-12-18T10:37:23.183Z,84.29
2018-12-18T10:41:28.916Z,84.52
2018-12-18T10:45:36.371Z,83.05
2018-12-18T10:49:42.232Z,82.74
2018-12-18T10:53:47.907Z,83.03
2018-12-18T10:57:53.566Z,82.66
2018-12-18T11:02:06.512Z,82.95
2018-12-18T11:06:12.754Z,84.54
2018-12-18T11:10:19.429Z,84.37
2018-12-18T11:14:25.155Z,84.18
2018-12-18T11:18:31.052Z,84.08
2018-12-18T11:22:36.615Z,84.11
2018-12-18T11:26:42.531Z,84.01
2018-12-18T11:30:48.225Z,83.44
2018-12-18T11:34:53.949Z,82.40
2018-12-18T11:38:59.563Z,82.47
2018-12-18T11:43:05.181Z,81.81
2018-12-18T11:47:10.846Z,81.97
2018-12-18T11:51:16.766Z,82.01
2018-12-18T11:55:22.472Z,81.56
2018-12-18T11:59:28.163Z,81.54
2018-12-18T12:03:34.951Z,80.97
2018-12-18T12:07:42.712Z,80.83
2018-12-18T12:11:48.568Z,80.75
2018-12-18T12:15:54.399Z,79.92
2018-12-18T12:20:00.235Z,80.33
2018-12-18T12:24:07.386Z,80.23
2018-12-18T12:28:13.286Z,80.11
2018-12-18T12:32:18.934Z,79.61
2018-12-18T12:40:41.332Z,77.79
2018-12-18T12:44:47.532Z,78.90
2018-12-18T12:48:55.374Z,78.14
2018-12-18T12:53:02.115Z,78.38
2018-12-18T12:57:10.291Z,79.25
2018-12-18T13:01:16.447Z,77.92
2018-12-18T13:05:22.616Z,77.95
2018-12-18T13:09:29.118Z,77.62
2018-12-18T13:13:34.777Z,77.33
2018-12-18T13:17:40.952Z,77.89
2018-12-18T13:21:46.756Z,78.05
2018-12-18T13:25:52.766Z,78.93
2018-12-18T13:29:59.040Z,78.29
2018-12-18T13:34:04.649Z,78.29
2018-12-18T13:38:10.679Z,78.38
2018-12-18T13:42:16.507Z,78.25
2018-12-18T13:46:22.368Z,78.21
2018-12-18T13:50:28.637Z,78.83
2018-12-18T13:54:34.372Z,78.49
2018-12-18T13:58:40.055Z,78.39
2018-12-18T14:02:45.611Z,78.23
2018-12-18T14:06:51.207Z,78.65
2018-12-18T14:10:57.758Z,78.71
2018-12-18T14:15:03.997Z,78.90
2018-12-18T14:19:09.641Z,78.87
2018-12-18T14:23:15.327Z,79.44
2018-12-18T14:27:21.102Z,78.99
2018-12-18T14:31:26.702Z,79.50
2018-12-18T14:35:32.359Z,79.76
2018-12-18T14:39:37.976Z,80.59
2018-12-18T14:43:43.679Z,79.96
2018-12-18T14:47:49.315Z,80.57
2018-12-18T14:51:54.912Z,80.74
2018-12-18T14:56:00.508Z,80.97
2018-12-18T15:00:07.683Z,80.99
2018-12-18T15:04:13.579Z,81.37
2018-12-18T15:08:19.844Z,81.47
2018-12-18T15:12:25.515Z,81.68
2018-12-18T15:16:31.106Z,81.63
2018-12-18T15:20:37.556Z,81.67
2018-12-18T15:24:43.244Z,81.67
2018-12-18T15:28:49.000Z,82.20
2018-12-18T15:32:58.591Z,82.49
2018-12-18T15:37:09.600Z,82.40
2018-12-18T15:41:12.632Z,82.76
2018-12-18T15:45:18.197Z,83.27
2018-12-18T15:49:24.727Z,83.16
2018-12-18T15:53:32.244Z,83.53
2018-12-18T15:57:39.218Z,83.53
2018-12-18T16:01:45.186Z,83.52
2018-12-18T16:05:52.067Z,83.79
2018-12-18T16:09:58.352Z,84.09
2018-12-18T16:14:04.665Z,83.64
2018-12-18T16:18:10.884Z,83.91
2018-12-18T16:22:19.002Z,84.17
2018-12-18T16:26:25.237Z,84.09
2018-12-18T16:30:31.637Z,84.15
2018-12-18T16:34:40.254Z,84.62
2018-12-18T16:38:46.806Z,85.01
2018-12-18T16:42:53.049Z,85.96
2018-12-18T16:46:59.855Z,85.90
2018-12-18T16:51:07.620Z,85.70
2018-12-18T16:55:13.911Z,85.77
2018-12-18T17:04:12.389Z,85.78
2018-12-18T17:08:18.915Z,86.09
2018-12-18T17:12:25.436Z,86.45
2018-12-18T17:16:31.684Z,86.61
2018-12-18T17:20:37.408Z,87.25
2018-12-18T17:29:01.792Z,87.25
2018-12-18T17:33:08.206Z,87.24
2018-12-18T17:37:14.219Z,87.22
2018-12-18T17:41:20.535Z,87.43
2018-12-18T17:45:26.675Z,87.89
2018-12-18T17:49:32.631Z,88.31
2018-12-18T17:53:38.916Z,88.02
2018-12-18T17:57:47.884Z,88.66
2018-12-18T18:06:41.414Z,88.76
2018-12-18T18:10:48.443Z,88.14
2018-12-18T18:14:56.827Z,87.92
2018-12-18T18:19:03.807Z,87.67
2018-12-18T18:23:10.242Z,88.56
2018-12-18T18:27:16.561Z,88.48
2018-12-18T18:31:22.839Z,88.60
2018-12-18T18:35:29.215Z,89.23
2018-12-18T18:39:35.740Z,89.19
2018-12-18T18:43:41.853Z,89.21
2018-12-18T18:47:48.120Z,89.26
2018-12-18T18:51:54.323Z,88.91
2018-12-18T18:56:00.617Z,89.64
2018-12-18T19:00:08.788Z,89.45
2018-12-18T19:04:15.682Z,89.08
2018-12-18T19:08:21.648Z,89.75
2018-12-18T19:12:28.283Z,89.83
2018-12-18T19:16:34.600Z,89.49
2018-12-18T19:20:40.867Z,89.12
2018-12-18T19:24:46.912Z,88.11
2018-12-18T19:28:52.870Z,88.11
2018-12-18T19:33:00.211Z,88.55
2018-12-18T19:37:06.763Z,88.06
2018-12-18T19:41:16.573Z,88.16
2018-12-18T19:45:23.343Z,86.71
2018-12-18T19:49:30.789Z,84.97
2018-12-18T19:53:37.478Z,84.63
2018-12-18T19:57:46.459Z,83.73
2018-12-18T20:01:53.956Z,84.02
2018-12-18T20:10:27.807Z,82.84
2018-12-18T20:14:35.416Z,81.93
2018-12-18T20:18:43.985Z,82.22
2018-12-18T20:22:53.543Z,82.03
2018-12-18T20:27:01.530Z,82.19
2018-12-18T20:31:07.791Z,82.24
2018-12-18T20:35:14.581Z,82.27
2018-12-18T20:39:20.629Z,82.33
2018-12-18T20:43:26.635Z,82.39
2018-12-18T20:47:32.946Z,82.56
2018-12-18T20:51:39.102Z,82.95
2018-12-18T20:55:45.939Z,83.65
2018-12-18T20:59:52.162Z,83.61
2018-12-18T21:04:00.207Z,84.08
2018-12-18T21:08:09.628Z,83.74
2018-12-18T21:12:15.746Z,84.45
2018-12-18T21:16:22.754Z,84.41
2018-12-18T21:20:29.458Z,85.27
2018-12-18T21:24:36.324Z,86.94
2018-12-18T21:28:43.488Z,85.09
2018-12-18T21:32:50.754Z,85.84
2018-12-18T21:36:58.050Z,85.62
2018-12-18T21:41:04.969Z,85.49
2018-12-18T21:45:11.786Z,85.40
2018-12-18T21:49:19.750Z,86.16
2018-12-18T21:53:25.942Z,85.58
2018-12-18T21:57:32.441Z,85.89
2018-12-18T22:01:38.561Z,85.77
2018-12-18T22:05:49.836Z,85.98
2018-12-18T22:09:57.804Z,86.15
2018-12-18T22:14:07.257Z,85.82
2018-12-18T22:18:15.360Z,86.67
2018-12-18T22:22:24.087Z,86.92
2018-12-18T22:26:31.289Z,86.78
2018-12-18T22:30:39.409Z,86.87
2018-12-18T22:34:45.438Z,87.28
2018-12-18T22:38:52.371Z,86.75
2018-12-18T22:42:58.707Z,87.13
2018-12-18T22:47:04.887Z,87.14
2018-12-18T22:51:10.954Z,86.99
2018-12-18T22:55:18.271Z,86.66
2018-12-18T22:59:24.691Z,87.22
2018-12-18T23:03:30.525Z,86.98
2018-12-18T23:07:37.674Z,87.31
2018-12-18T23:11:44.268Z,87.09
2018-12-18T23:15:53.843Z,87.38
2018-12-18T23:19:59.787Z,87.57
2018-12-18T23:24:05.779Z,87.75
2018-12-18T23:28:11.980Z,87.60
2018-12-18T23:32:18.896Z,87.15
2018-12-18T23:36:24.964Z,88.07
2018-12-18T23:40:32.439Z,88.25
2018-12-18T23:44:38.428Z,87.43
2018-12-18T23:48:44.408Z,87.95
2018-12-18T23:52:50.345Z,88.04
2018-12-18T23:56:56.329Z,87.21
